Norrskar — SGFD — position and weather

sailwx.info

Track history (hours):
 
Tides and Currents Weather Stations Pressure Air Temp Water Temp Dewpoint Dewpoint Depression Visibility Wind Speed Wind Dir Waves Ship Positions

Norrskar

Last reported at 2014-Jul-24 09:22 UTC. Time now 2014-Jul-24 13:04 UTC.
Position N 59°19' E 018°11'.

Length 35 m; draft 3 m.

Type: Passenger vessel. MMSI: 265522430.

Date/timePositionNaut miles runAvg speedWind from/ knotsBaromVisibWave heightAir tempDewpointWater temp
2014-Jul-24 09:22N 59°19' E 018°11'3 3.3
2014-Jul-24 08:27N 59°20' E 018°05'0 0.0
2014-Jul-24 07:27N 59°20' E 018°05'0 0.0
2014-Jul-24 06:33N 59°20' E 018°05'0 0.0
2014-Jul-24 05:33N 59°20' E 018°05'0 0.0
2014-Jul-24 04:22N 59°20' E 018°05'0 0.0
2014-Jul-24 03:13N 59°20' E 018°05'0 0.0
2014-Jul-24 02:29N 59°20' E 018°05'0 0.0
2014-Jul-24 01:29N 59°20' E 018°05'0 0.0
2014-Jul-24 00:26N 59°20' E 018°05'0 0.0
2014-Jul-23 23:30N 59°20' E 018°05'0 0.0
2014-Jul-23 21:31N 59°20' E 018°05'3 1.5
2014-Jul-23 19:28N 59°20' E 018°11'2 0.6
2014-Jul-23 16:10N 59°19' E 018°07'1 1.8
2014-Jul-23 15:29N 59°20' E 018°05'2 0.4
2014-Jul-23 09:17N 59°19' E 018°09'2 1.2
2014-Jul-23 07:25N 59°20' E 018°05'0 0.0
2014-Jul-23 06:23N 59°20' E 018°05'3 0.2
2014-Jul-22 19:32N 59°19' E 018°10'0 0.1
2014-Jul-22 16:16N 59°19' E 018°09'2 2.4
2014-Jul-22 15:21N 59°20' E 018°05'7 7.1
2014-Jul-22 14:21N 59°23' E 018°17'5 0.9
2014-Jul-22 09:23N 59°20' E 018°11'3 3.4
2014-Jul-22 08:28N 59°20' E 018°05'0 0.0
2014-Jul-22 06:23N 59°20' E 018°05'0 0.0
2014-Jul-22 05:33N 59°20' E 018°05'1 0.1
2014-Jul-21 19:33N 59°19' E 018°07'0 0.1
2014-Jul-21 16:07N 59°19' E 018°06'1 1.3
2014-Jul-21 15:27N 59°20' E 018°05'0 0.0
2014-Jul-21 05:23N 59°20' E 018°05'1 0.1
2014-Jul-20 17:33N 59°19' E 018°06'1 0.1
2014-Jul-20 08:33N 59°20' E 018°05'0 0.0
2014-Jul-20 05:20N 59°20' E 018°05'0 0.0
2014-Jul-20 04:27N 59°20' E 018°05'0 0.0
2014-Jul-20 02:33N 59°20' E 018°05'0 0.0
2014-Jul-20 01:27N 59°20' E 018°05'0 0.0
2014-Jul-19 23:16N 59°20' E 018°05'0 0.0
2014-Jul-19 21:28N 59°20' E 018°05'0 0.0
2014-Jul-19 20:22N 59°20' E 018°05'0 0.0
2014-Jul-19 08:33N 59°20' E 018°05'0 0.0
2014-Jul-19 06:29N 59°20' E 018°05'0 0.0
2014-Jul-18 20:31N 59°20' E 018°05'1 0.1
2014-Jul-18 16:07N 59°19' E 018°05'1 0.8
2014-Jul-18 15:25N 59°20' E 018°05'1 0.1
2014-Jul-18 09:08N 59°19' E 018°05'1 1.0
2014-Jul-18 08:29N 59°20' E 018°05'0 0.0
2014-Jul-18 05:16N 59°20' E 018°05'0 0.0
2014-Jul-17 15:18N 59°20' E 018°05'0 0.0
2014-Jul-17 09:03N 59°20' E 018°05'0 0.2
2014-Jul-17 08:14N 59°20' E 018°05'0 0.0
2014-Jul-17 06:30N 59°20' E 018°05'0 0.0
2014-Jul-17 05:27N 59°20' E 018°05'0 0.0
2014-Jul-17 04:05N 59°20' E 018°05'0 0.0
2014-Jul-17 02:20N 59°20' E 018°05'1 0.1
2014-Jul-16 16:08N 59°19' E 018°06'1 1.5
2014-Jul-16 15:24N 59°20' E 018°05'0 0.0
2014-Jul-16 07:23N 59°20' E 018°05'0 0.0
2014-Jul-16 06:16N 59°20' E 018°05'0 0.0
2014-Jul-16 05:24N 59°20' E 018°05'1 0.1
2014-Jul-15 19:33N 59°19' E 018°06'1 0.2
2014-Jul-15 16:12N 59°19' E 018°07'1 2.2
2014-Jul-15 15:33N 59°20' E 018°05'1 0.1
2014-Jul-15 09:07N 59°19' E 018°05'1 0.6
2014-Jul-15 08:09N 59°20' E 018°05'0 0.0
2014-Jul-15 06:32N 59°20' E 018°05'0 0.0
2014-Jul-15 05:33N 59°20' E 018°05'0 0.0
2014-Jul-15 04:32N 59°20' E 018°05'0 0.0
2014-Jul-15 00:04N 59°20' E 018°05'0 0.0
2014-Jul-14 22:09N 59°20' E 018°05'0 0.0
2014-Jul-14 20:19N 59°20' E 018°05'1 0.3
2014-Jul-14 16:09N 59°19' E 018°07'1 1.5
2014-Jul-14 15:20N 59°20' E 018°05'  
Track history (hours):
 
Tides and Currents Weather Stations Pressure Air Temp Water Temp Dewpoint Dewpoint Depression Visibility Wind Speed Wind Dir Waves Ship Positions

Norrskar

Last reported at 2014-Jul-24 09:22 UTC. Time now 2014-Jul-24 13:04 UTC.
Position N 59°19' E 018°11'.

Length 35 m; draft 3 m.

Type: Passenger vessel. MMSI: 265522430.

Date/timePositionNaut miles runAvg speedWind from/ knotsBaromVisibWave heightAir tempDewpointWater temp
2014-Jul-24 09:22N 59°19' E 018°11'3 3.3
2014-Jul-24 08:27N 59°20' E 018°05'0 0.0
2014-Jul-24 07:27N 59°20' E 018°05'0 0.0
2014-Jul-24 06:33N 59°20' E 018°05'0 0.0
2014-Jul-24 05:33N 59°20' E 018°05'0 0.0
2014-Jul-24 04:22N 59°20' E 018°05'0 0.0
2014-Jul-24 03:13N 59°20' E 018°05'0 0.0
2014-Jul-24 02:29N 59°20' E 018°05'0 0.0
2014-Jul-24 01:29N 59°20' E 018°05'0 0.0
2014-Jul-24 00:26N 59°20' E 018°05'0 0.0
2014-Jul-23 23:30N 59°20' E 018°05'0 0.0
2014-Jul-23 21:31N 59°20' E 018°05'3 1.5
2014-Jul-23 19:28N 59°20' E 018°11'2 0.6
2014-Jul-23 16:10N 59°19' E 018°07'1 1.8
2014-Jul-23 15:29N 59°20' E 018°05'2 0.4
2014-Jul-23 09:17N 59°19' E 018°09'2 1.2
2014-Jul-23 07:25N 59°20' E 018°05'0 0.0
2014-Jul-23 06:23N 59°20' E 018°05'3 0.2
2014-Jul-22 19:32N 59°19' E 018°10'0 0.1
2014-Jul-22 16:16N 59°19' E 018°09'2 2.4
2014-Jul-22 15:21N 59°20' E 018°05'7 7.1
2014-Jul-22 14:21N 59°23' E 018°17'5 0.9
2014-Jul-22 09:23N 59°20' E 018°11'3 3.4
2014-Jul-22 08:28N 59°20' E 018°05'0 0.0
2014-Jul-22 06:23N 59°20' E 018°05'0 0.0
2014-Jul-22 05:33N 59°20' E 018°05'1 0.1
2014-Jul-21 19:33N 59°19' E 018°07'0 0.1
2014-Jul-21 16:07N 59°19' E 018°06'1 1.3
2014-Jul-21 15:27N 59°20' E 018°05'0 0.0
2014-Jul-21 05:23N 59°20' E 018°05'1 0.1
2014-Jul-20 17:33N 59°19' E 018°06'1 0.1
2014-Jul-20 08:33N 59°20' E 018°05'0 0.0
2014-Jul-20 05:20N 59°20' E 018°05'0 0.0
2014-Jul-20 04:27N 59°20' E 018°05'0 0.0
2014-Jul-20 02:33N 59°20' E 018°05'0 0.0
2014-Jul-20 01:27N 59°20' E 018°05'0 0.0
2014-Jul-19 23:16N 59°20' E 018°05'0 0.0
2014-Jul-19 21:28N 59°20' E 018°05'0 0.0
2014-Jul-19 20:22N 59°20' E 018°05'0 0.0
2014-Jul-19 08:33N 59°20' E 018°05'0 0.0
2014-Jul-19 06:29N 59°20' E 018°05'0 0.0
2014-Jul-18 20:31N 59°20' E 018°05'1 0.1
2014-Jul-18 16:07N 59°19' E 018°05'1 0.8
2014-Jul-18 15:25N 59°20' E 018°05'1 0.1
2014-Jul-18 09:08N 59°19' E 018°05'1 1.0
2014-Jul-18 08:29N 59°20' E 018°05'0 0.0
2014-Jul-18 05:16N 59°20' E 018°05'0 0.0
2014-Jul-17 15:18N 59°20' E 018°05'0 0.0
2014-Jul-17 09:03N 59°20' E 018°05'0 0.2
2014-Jul-17 08:14N 59°20' E 018°05'0 0.0
2014-Jul-17 06:30N 59°20' E 018°05'0 0.0
2014-Jul-17 05:27N 59°20' E 018°05'0 0.0
2014-Jul-17 04:05N 59°20' E 018°05'0 0.0
2014-Jul-17 02:20N 59°20' E 018°05'1 0.1
2014-Jul-16 16:08N 59°19' E 018°06'1 1.5
2014-Jul-16 15:24N 59°20' E 018°05'0 0.0
2014-Jul-16 07:23N 59°20' E 018°05'0 0.0
2014-Jul-16 06:16N 59°20' E 018°05'0 0.0
2014-Jul-16 05:24N 59°20' E 018°05'1 0.1
2014-Jul-15 19:33N 59°19' E 018°06'1 0.2
2014-Jul-15 16:12N 59°19' E 018°07'1 2.2
2014-Jul-15 15:33N 59°20' E 018°05'1 0.1
2014-Jul-15 09:07N 59°19' E 018°05'1 0.6
2014-Jul-15 08:09N 59°20' E 018°05'0 0.0
2014-Jul-15 06:32N 59°20' E 018°05'0 0.0
2014-Jul-15 05:33N 59°20' E 018°05'0 0.0
2014-Jul-15 04:32N 59°20' E 018°05'0 0.0
2014-Jul-15 00:04N 59°20' E 018°05'0 0.0
2014-Jul-14 22:09N 59°20' E 018°05'0 0.0
2014-Jul-14 20:19N 59°20' E 018°05'1 0.3
2014-Jul-14 16:09N 59°19' E 018°07'1 1.5
2014-Jul-14 15:20N 59°20' E 018°05'  

Dump ship's entire track history